Time;durP1;ratioP1;P1;durP2;ratioP2;P2;SDS_P1;SDS_P2;PMS_P1;PMS_P2;Temp;Humidity;BMP_temperature;BMP_pressure;BME280_temperature;BME280_humidity;BME280_pressure;Samples;Min_cycle;Max_cycle;Signal;HPM_P1;HPM_P2
2023/10/15 00:01:52;;;;;;;;;;;;;;;12.46;86.16;98560.75;4954804;28;19921;-76
2023/10/15 00:04:18;;;;;;;;;;;;;;;12.47;86.47;98559.00;4957340;28;19974;-79
2023/10/15 00:06:44;;;;;;;;;;;;;;;12.48;86.37;98558.09;4966633;28;19971;-77
2023/10/15 00:09:10;;;;;;;;;;;;;;;12.50;86.28;98566.72;4961530;28;19926;-77
2023/10/15 00:11:36;;;;;;;;;;;;;;;12.50;86.20;98558.88;4954619;28;19932;-78
2023/10/15 00:14:05;;;;;;;;;;;;;;;12.51;86.23;98563.19;4981756;28;19967;-78
2023/10/15 00:16:31;;;;;;;;;;;;;;;12.53;86.31;98556.16;4969628;28;19922;-78
2023/10/15 00:18:57;;;;;;;;;;;;;;;12.54;86.33;98564.88;4978839;28;20004;-77
2023/10/15 00:21:26;;;;;;;;;;;;;;;12.50;86.32;98554.53;4953934;28;19956;-79
2023/10/15 00:23:52;;;;;;;;;;;;;;;12.50;86.17;98554.53;4984795;28;19923;-77
2023/10/15 00:26:21;;;;;;;;;;;;;;;12.48;86.26;98558.09;4984685;28;19978;-81
2023/10/15 00:28:50;;;;;;;;;;;;;;;12.47;86.33;98551.16;4982917;28;20012;-78
2023/10/15 00:31:17;;;;;;;;;;;;;;;12.44;86.12;98554.75;4981525;28;19985;-79
2023/10/15 00:33:48;;;;;;;;;;;;;;;12.46;86.45;98560.75;4980964;28;19922;-78
2023/10/15 00:36:20;;;;;;;;;;;;;;;12.45;86.17;98563.44;4953131;28;19933;-79
2023/10/15 00:38:48;;;;;;;;;;;;;;;12.43;86.29;98565.25;4963287;28;20001;-82
2023/10/15 00:41:14;;;;;;;;;;;;;;;12.42;86.37;98560.94;4985473;28;19967;-79
2023/10/15 00:43:54;;;;;;;;;;;;;;;12.42;86.27;98558.34;4967877;28;19950;-77
2023/10/15 00:46:26;;;;;;;;;;;;;;;12.41;86.33;98548.81;4971577;28;20028;-75
2023/10/15 00:48:56;;;;;;;;;;;;;;;12.40;86.23;98539.28;4983397;28;20356;-76
2023/10/15 00:51:22;;;;;;;;;;;;;;;12.39;86.24;98540.19;4965749;28;19922;-75
2023/10/15 00:53:59;;;;;;;;;;;;;;;12.41;86.43;98525.31;4972302;28;20024;-77
2023/10/15 00:56:28;;;;;;;;;;;;;;;12.43;86.30;98529.56;4983056;28;19921;-75
2023/10/15 00:59:08;;;;;;;;;;;;;;;12.45;86.19;98526.91;4982823;28;19957;-76
2023/10/15 01:01:42;;;;;;;;;;;;;;;12.45;86.37;98526.91;4971542;28;19929;-77
2023/10/15 01:04:15;;;;;;;;;;;;;;;12.46;86.42;98533.84;4952722;28;19976;-75
2023/10/15 01:06:46;;;;;;;;;;;;;;;12.46;86.25;98536.44;4984786;28;19929;-75
2023/10/15 01:09:29;;;;;;;;;;;;;;;12.45;86.31;98532.97;4986987;28;19985;-77
2023/10/15 01:11:56;;;;;;;;;;;;;;;12.44;86.38;98536.50;4966138;28;19981;-76
2023/10/15 01:14:36;;;;;;;;;;;;;;;12.43;86.36;98536.56;4984322;28;19921;-77
2023/10/15 01:17:02;;;;;;;;;;;;;;;12.43;86.43;98531.34;4985974;28;20339;-76
2023/10/15 01:19:31;;;;;;;;;;;;;;;12.42;86.25;98527.03;4976055;28;20447;-79
2023/10/15 01:22:04;;;;;;;;;;;;;;;12.42;86.25;98527.03;4964354;28;19946;-77
2023/10/15 01:25:16;;;;;;;;;;;;;;;12.41;86.20;98525.31;4985215;28;19996;-77
2023/10/15 01:27:43;;;;;;;;;;;;;;;12.39;86.31;98533.19;4984305;28;19933;-76
2023/10/15 01:30:17;;;;;;;;;;;;;;;12.40;86.24;98527.06;4951392;28;19923;-74
2023/10/15 01:32:44;;;;;;;;;;;;;;;12.41;86.41;98534.00;4982421;28;19921;-75
2023/10/15 01:35:10;;;;;;;;;;;;;;;12.42;86.33;98519.19;4983518;28;20552;-72
2023/10/15 01:37:37;;;;;;;;;;;;;;;12.43;86.30;98518.28;4966741;28;19932;-73
2023/10/15 01:42:34;;;;;;;;;;;;;;;12.42;86.36;98516.59;4988091;28;20296;-73
2023/10/15 01:45:17;;;;;;;;;;;;;;;12.39;86.19;98522.75;4973984;28;19922;-74
2023/10/15 01:50:31;;;;;;;;;;;;;;;12.37;86.18;98521.13;4982062;28;19922;-74
2023/10/15 01:53:04;;;;;;;;;;;;;;;12.33;86.12;98518.63;4980245;28;20339;-74
2023/10/15 01:55:35;;;;;;;;;;;;;;;12.32;86.17;98521.31;4951290;28;19971;-74
2023/10/15 01:58:05;;;;;;;;;;;;;;;12.32;86.43;98523.91;4966712;28;20004;-74
2023/10/15 02:03:06;;;;;;;;;;;;;;;12.32;86.41;98529.13;4967724;28;19933;-73
2023/10/15 02:05:42;;;;;;;;;;;;;;;12.31;86.29;98527.41;4977211;28;20592;-79
2023/10/15 02:08:12;;;;;;;;;;;;;;;12.29;86.26;98532.69;4975041;28;19926;-79
2023/10/15 02:10:40;;;;;;;;;;;;;;;12.31;86.15;98536.09;4966204;28;19949;-81
2023/10/15 02:13:11;;;;;;;;;;;;;;;12.34;86.43;98530.75;4951806;28;19976;-79
2023/10/15 02:15:41;;;;;;;;;;;;;;;12.43;86.42;98528.72;4986150;28;21168;-80
2023/10/15 02:18:19;;;;;;;;;;;;;;;12.50;86.29;98533.66;4954511;28;20013;-80
2023/10/15 02:23:21;;;;;;;;;;;;;;;12.62;86.31;98536.72;4983809;28;20447;-78
2023/10/15 02:25:56;;;;;;;;;;;;;;;12.64;86.09;98522.72;4984476;28;19922;-77
2023/10/15 02:28:46;;;;;;;;;;;;;;;12.65;86.13;98520.94;4966376;28;19922;-78
2023/10/15 02:33:34;;;;;;;;;;;;;;;12.62;86.09;98516.69;4982807;28;21009;-78
2023/10/15 02:36:02;;;;;;;;;;;;;;;12.62;86.10;98523.66;4968607;28;20393;-78
2023/10/15 02:38:36;;;;;;;;;;;;;;;12.63;86.25;98527.97;4971002;28;19922;-77
2023/10/15 02:41:06;;;;;;;;;;;;;;;12.65;86.29;98527.03;4972855;28;19983;-78
2023/10/15 02:43:48;;;;;;;;;;;;;;;12.68;86.13;98533.03;4971406;28;19921;-76
2023/10/15 02:46:24;;;;;;;;;;;;;;;12.69;86.09;98526.91;4982545;28;20079;-81
2023/10/15 02:48:54;;;;;;;;;;;;;;;12.73;86.22;98528.47;4988939;28;19922;-77
2023/10/15 02:51:24;;;;;;;;;;;;;;;12.74;86.17;98533.66;4971768;28;19926;-76
2023/10/15 02:54:02;;;;;;;;;;;;;;;12.75;86.10;98529.28;4948136;28;19929;-77
2023/10/15 02:56:28;;;;;;;;;;;;;;;12.76;85.92;98523.16;4983634;28;19933;-75
2023/10/15 02:58:54;;;;;;;;;;;;;;;12.78;86.03;98529.16;4968619;28;19933;-74
2023/10/15 03:01:23;;;;;;;;;;;;;;;12.85;86.20;98535.00;4966104;28;19922;-74
2023/10/15 03:03:53;;;;;;;;;;;;;;;12.88;86.15;98525.31;4958646;28;19923;-76
2023/10/15 03:06:24;;;;;;;;;;;;;;;12.89;85.90;98518.31;4979007;28;19933;-74
2023/10/15 03:08:51;;;;;;;;;;;;;;;12.90;85.84;98515.66;4980256;28;20036;-73
2023/10/15 03:11:33;;;;;;;;;;;;;;;12.92;85.88;98519.03;4983383;28;19958;-75
2023/10/15 03:14:02;;;;;;;;;;;;;;;12.93;85.87;98520.72;4979542;28;19928;-73
2023/10/15 03:16:30;;;;;;;;;;;;;;;12.94;85.78;98511.97;4954502;28;19929;-73
2023/10/15 03:19:09;;;;;;;;;;;;;;;12.98;85.77;98517.09;4982579;28;19928;-74
2023/10/15 03:21:39;;;;;;;;;;;;;;;13.00;85.75;98523.09;4983796;28;19987;-73
2023/10/15 03:24:14;;;;;;;;;;;;;;;13.01;85.70;98522.19;4952836;28;19981;-74
2023/10/15 03:26:47;;;;;;;;;;;;;;;13.04;85.81;98511.63;4969624;28;19929;-74
2023/10/15 03:29:15;;;;;;;;;;;;;;;13.04;85.79;98512.47;4987310;28;20033;-75
2023/10/15 03:31:47;;;;;;;;;;;;;;;13.05;85.74;98519.41;4981605;28;19936;-73
2023/10/15 03:34:14;;;;;;;;;;;;;;;13.04;85.54;98515.09;4981713;28;19929;-73
2023/10/15 03:36:57;;;;;;;;;;;;;;;13.05;85.54;98510.72;4981819;28;19966;-73
2023/10/15 03:39:51;;;;;;;;;;;;;;;13.07;85.66;98527.19;4986251;28;19925;-74
2023/10/15 03:44:59;;;;;;;;;;;;;;;13.09;85.57;98518.38;4981400;28;19922;-74
2023/10/15 03:47:26;;;;;;;;;;;;;;;13.13;85.47;98510.41;4979735;28;19921;-73
2023/10/15 03:49:55;;;;;;;;;;;;;;;13.13;85.53;98511.25;4952351;28;19930;-73
2023/10/15 03:52:22;;;;;;;;;;;;;;;13.16;85.66;98511.13;4965139;28;19921;-73
2023/10/15 03:54:51;;;;;;;;;;;;;;;13.19;85.60;98515.41;4963375;28;20467;-74
2023/10/15 03:57:17;;;;;;;;;;;;;;;13.21;85.61;98518.81;4981832;28;19980;-74
2023/10/15 03:59:53;;;;;;;;;;;;;;;13.24;85.60;98514.31;4965888;28;19922;-75
2023/10/15 04:03:16;;;;;;;;;;;;;;;13.26;85.56;98511.63;4981304;28;19922;-74
2023/10/15 04:05:14;;;;;;;;;;;;;;;13.26;85.34;98522.94;4971264;28;20004;-73
2023/10/15 04:07:49;;;;;;;;;;;;;;;13.30;85.40;98515.81;4981736;28;19922;-73
2023/10/15 04:10:22;;;;;;;;;;;;;;;13.34;85.48;98511.34;4967684;28;20304;-74
2023/10/15 04:12:50;;;;;;;;;;;;;;;13.34;85.31;98493.03;4977938;28;19968;-73
2023/10/15 04:15:18;;;;;;;;;;;;;;;13.37;85.39;98492.88;4982940;28;19926;-73
2023/10/15 04:17:48;;;;;;;;;;;;;;;13.42;85.22;98498.81;4987314;28;20536;-74
2023/10/15 04:20:56;;;;;;;;;;;;;;;13.44;85.03;98502.22;4963720;28;20056;-73
2023/10/15 04:23:04;;;;;;;;;;;;;;;13.48;85.20;98509.03;4976019;28;19926;-73
2023/10/15 04:25:33;;;;;;;;;;;;;;;13.51;85.03;98506.28;4950330;28;20352;-74
2023/10/15 04:28:08;;;;;;;;;;;;;;;13.52;84.97;98513.22;4964891;28;19953;-73
2023/10/15 04:30:40;;;;;;;;;;;;;;;13.54;84.90;98511.38;4986416;28;19926;-76
2023/10/15 04:33:13;;;;;;;;;;;;;;;13.55;84.78;98526.16;4956976;28;20064;-76
2023/10/15 04:35:42;;;;;;;;;;;;;;;13.55;84.62;98525.28;4966561;28;19923;-75
2023/10/15 04:38:08;;;;;;;;;;;;;;;13.53;84.37;98527.97;4983822;28;19994;-74
2023/10/15 04:40:59;;;;;;;;;;;;;;;13.52;84.43;98533.25;4967044;28;19932;-77
2023/10/15 04:43:25;;;;;;;;;;;;;;;13.50;84.56;98538.56;4981636;28;19937;-76
2023/10/15 04:45:54;;;;;;;;;;;;;;;13.52;84.46;98539.34;4987542;28;20024;-74
2023/10/15 04:48:27;;;;;;;;;;;;;;;13.55;84.44;98546.19;4968288;28;19933;-75
2023/10/15 04:50:53;;;;;;;;;;;;;;;13.53;84.37;98548.88;4967219;28;19938;-74
2023/10/15 04:55:49;;;;;;;;;;;;;;;13.53;84.28;98546.28;4983153;28;19968;-74
2023/10/15 04:58:15;;;;;;;;;;;;;;;13.52;84.18;98562.88;4954579;28;19926;-75
2023/10/15 05:00:46;;;;;;;;;;;;;;;13.51;84.02;98560.28;4990436;28;19929;-75
2023/10/15 05:03:15;;;;;;;;;;;;;;;13.46;83.88;98559.66;4985544;28;19972;-73
2023/10/15 05:05:44;;;;;;;;;;;;;;;13.42;84.05;98564.13;4973264;28;19922;-73
2023/10/15 05:08:11;;;;;;;;;;;;;;;13.40;83.97;98566.81;4983632;28;19949;-75
2023/10/15 05:10:50;;;;;;;;;;;;;;;13.39;84.01;98566.84;4983798;28;19932;-75
2023/10/15 05:13:16;;;;;;;;;;;;;;;13.40;84.10;98565.91;4983191;28;19958;-73
2023/10/15 05:15:56;;;;;;;;;;;;;;;;;;;;;
2023/10/15 05:18:22;;;;;;;;;;;;;;;13.39;84.08;98569.44;4983003;28;20352;-74
2023/10/15 05:21:03;;;;;;;;;;;;;;;13.41;84.02;98559.81;4985817;28;19934;-74
2023/10/15 05:23:31;;;;;;;;;;;;;;;13.40;83.69;98553.75;4944891;28;19925;-74
2023/10/15 05:26:00;;;;;;;;;;;;;;;13.42;83.86;98561.53;4989140;28;19970;-75
2023/10/15 05:28:32;;;;;;;;;;;;;;;13.42;83.95;98560.69;4950560;28;19953;-76
2023/10/15 05:31:00;;;;;;;;;;;;;;;13.43;83.78;98568.44;4981569;28;19926;-76
2023/10/15 05:33:28;;;;;;;;;;;;;;;13.43;83.75;98570.22;4984744;28;19922;-77
2023/10/15 05:35:56;;;;;;;;;;;;;;;13.44;84.00;98578.00;4965078;28;19926;-78
2023/10/15 05:38:25;;;;;;;;;;;;;;;13.45;83.85;98579.69;4987995;28;19929;-78
2023/10/15 05:40:57;;;;;;;;;;;;;;;13.44;83.78;98579.78;4968480;28;19922;-77
2023/10/15 05:43:29;;;;;;;;;;;;;;;13.46;83.63;98572.72;4963700;28;19928;-78
2023/10/15 05:45:55;;;;;;;;;;;;;;;13.47;83.69;98570.03;4986076;28;20331;-78
2023/10/15 05:48:21;;;;;;;;;;;;;;;13.48;83.79;98566.50;4986097;28;19921;-78
2023/10/15 05:50:54;;;;;;;;;;;;;;;13.49;83.69;98572.56;4985664;28;19955;-77
2023/10/15 05:53:20;;;;;;;;;;;;;;;13.51;83.77;98575.97;4988537;28;19929;-77
2023/10/15 05:55:46;;;;;;;;;;;;;;;13.52;83.62;98570.69;4985310;28;20337;-77
2023/10/15 05:58:17;;;;;;;;;;;;;;;13.58;83.79;98576.56;4991377;28;19933;-78
2023/10/15 06:00:46;;;;;;;;;;;;;;;13.62;83.50;98578.16;4989465;28;19922;-82
2023/10/15 06:03:15;;;;;;;;;;;;;;;13.63;83.54;98578.09;4959258;28;20104;-76
2023/10/15 06:05:44;;;;;;;;;;;;;;;13.64;83.61;98569.34;4963088;28;19932;-74
2023/10/15 06:08:10;;;;;;;;;;;;;;;13.70;83.62;98566.47;4948521;28;20029;-73
2023/10/15 06:10:36;;;;;;;;;;;;;;;13.75;83.67;98561.06;4966365;28;19922;-74
2023/10/15 06:13:28;;;;;;;;;;;;;;;13.78;83.47;98560.06;4981038;28;19929;-72
2023/10/15 06:16:00;;;;;;;;;;;;;;;13.78;83.59;98562.69;4981206;28;19960;-72
2023/10/15 06:18:30;;;;;;;;;;;;;;;13.80;83.47;98547.78;4985448;28;19957;-76
2023/10/15 06:20:57;;;;;;;;;;;;;;;13.81;83.49;98555.56;4983712;28;19922;-74
2023/10/15 06:23:24;;;;;;;;;;;;;;;13.80;83.27;98566.09;4985755;28;19926;-76
2023/10/15 06:25:58;;;;;;;;;;;;;;;13.81;83.48;98557.34;4984777;28;19922;-73
2023/10/15 06:28:30;;;;;;;;;;;;;;;13.82;83.59;98543.34;4953446;28;19965;-72
2023/10/15 06:30:59;;;;;;;;;;;;;;;13.83;83.17;98558.13;4989381;28;20347;-73
2023/10/15 06:33:26;;;;;;;;;;;;;;;13.83;83.42;98571.19;4985740;28;20431;-72
2023/10/15 06:35:51;;;;;;;;;;;;;;;13.81;83.22;98571.25;4978585;28;19921;-71
2023/10/15 06:38:17;;;;;;;;;;;;;;;13.78;83.08;98566.16;4979949;28;19945;-76
2023/10/15 06:40:51;;;;;;;;;;;;;;;13.75;83.24;98576.75;4975146;28;19926;-75
2023/10/15 06:43:18;;;;;;;;;;;;;;;13.76;83.33;98586.31;4976829;28;20025;-74
2023/10/15 06:45:44;;;;;;;;;;;;;;;13.70;83.39;98597.84;4985808;28;20345;-73
2023/10/15 06:48:12;;;;;;;;;;;;;;;13.67;83.42;98591.88;4977999;28;19926;-75
2023/10/15 06:50:41;;;;;;;;;;;;;;;13.62;83.33;98588.59;4965337;28;19928;-73
2023/10/15 06:53:14;;;;;;;;;;;;;;;13.60;83.35;98585.19;4966091;28;21556;-74
2023/10/15 06:55:45;;;;;;;;;;;;;;;13.58;83.34;98579.19;4983547;28;19977;-76
2023/10/15 06:58:12;;;;;;;;;;;;;;;13.59;83.63;98573.03;4981801;28;20053;-76
2023/10/15 07:00:41;;;;;;;;;;;;;;;13.61;83.62;98572.09;4981166;28;20438;-75
2023/10/15 07:03:07;;;;;;;;;;;;;;;13.66;83.64;98567.53;4986947;28;19980;-73
2023/10/15 07:05:36;;;;;;;;;;;;;;;13.70;83.62;98563.00;4979284;28;20024;-73
2023/10/15 07:08:05;;;;;;;;;;;;;;;13.73;83.79;98575.09;4979431;28;19930;-73
2023/10/15 07:10:33;;;;;;;;;;;;;;;13.73;83.46;98578.56;4983468;28;19926;-75
2023/10/15 07:13:02;;;;;;;;;;;;;;;13.73;83.55;98581.19;4980012;28;20035;-76
2023/10/15 07:15:38;;;;;;;;;;;;;;;13.73;83.33;98586.41;4978024;28;20368;-72
2023/10/15 07:18:09;;;;;;;;;;;;;;;13.77;83.44;98594.97;4952033;28;20452;-74
2023/10/15 07:20:35;;;;;;;;;;;;;;;13.81;83.49;98586.09;4978974;28;21379;-74
2023/10/15 07:23:01;;;;;;;;;;;;;;;13.86;83.55;98594.59;4993203;28;20427;-78
2023/10/15 07:25:32;;;;;;;;;;;;;;;13.87;83.46;98596.31;4961289;28;19922;-77
2023/10/15 07:28:01;;;;;;;;;;;;;;;13.88;83.33;98599.75;4982652;28;19922;-77
2023/10/15 07:30:33;;;;;;;;;;;;;;;13.92;83.51;98610.03;4972218;28;19989;-77
2023/10/15 07:32:59;;;;;;;;;;;;;;;13.89;83.19;98622.38;4974205;28;19926;-75
2023/10/15 07:35:26;;;;;;;;;;;;;;;13.78;83.09;98615.84;4962092;28;19937;-75
2023/10/15 07:37:52;;;;;;;;;;;;;;;13.69;83.00;98619.66;4981434;28;19922;-77
2023/10/15 07:40:21;;;;;;;;;;;;;;;13.65;83.04;98620.72;4966132;28;19933;-78
2023/10/15 07:42:58;;;;;;;;;;;;;;;13.62;83.20;98612.13;4981838;28;19922;-77
2023/10/15 07:45:29;;;;;;;;;;;;;;;13.60;83.18;98624.41;4963800;28;19926;-78
2023/10/15 07:47:55;;;;;;;;;;;;;;;13.63;82.96;98624.28;4986007;28;19970;-75
2023/10/15 07:50:25;;;;;;;;;;;;;;;13.58;82.95;98634.06;4969032;28;19958;-79
2023/10/15 07:52:52;;;;;;;;;;;;;;;13.47;82.74;98632.75;4972084;28;19922;-78
2023/10/15 07:55:19;;;;;;;;;;;;;;;13.42;82.68;98636.47;4982894;28;19929;-78
2023/10/15 07:57:50;;;;;;;;;;;;;;;13.32;82.57;98635.94;4983052;28;19968;-79
2023/10/15 08:00:26;;;;;;;;;;;;;;;13.24;82.44;98631.00;4984872;28;19921;-79
2023/10/15 08:03:01;;;;;;;;;;;;;;;13.16;82.55;98640.88;4965709;28;19923;-75
2023/10/15 08:05:34;;;;;;;;;;;;;;;13.15;82.55;98647.03;4968016;28;20392;-77
2023/10/15 08:08:00;;;;;;;;;;;;;;;13.16;82.46;98644.34;4981930;28;19922;-79
2023/10/15 08:10:36;;;;;;;;;;;;;;;13.20;82.65;98639.88;4980601;28;20017;-75
2023/10/15 08:13:02;;;;;;;;;;;;;;;13.26;82.50;98634.38;4969047;28;19936;-76
2023/10/15 08:15:33;;;;;;;;;;;;;;;13.31;82.52;98639.47;4973515;28;19977;-77
2023/10/15 08:18:09;;;;;;;;;;;;;;;13.38;82.61;98641.75;4981894;28;19941;-77
2023/10/15 08:20:35;;;;;;;;;;;;;;;13.40;82.45;98633.84;4980048;28;19926;-77
2023/10/15 08:23:01;;;;;;;;;;;;;;;13.46;82.52;98646.72;4978831;28;19921;-77
2023/10/15 08:25:48;;;;;;;;;;;;;;;13.48;82.40;98651.88;4980481;28;19928;-77
2023/10/15 08:28:17;;;;;;;;;;;;;;;13.52;82.63;98641.25;4952436;28;19938;-76
2023/10/15 08:30:48;;;;;;;;;;;;;;;13.57;82.48;98638.47;4966874;28;19914;-80
2023/10/15 08:33:32;;;;;;;;;;;;;;;13.62;82.47;98635.66;4973742;28;19961;-81
2023/10/15 08:36:02;;;;;;;;;;;;;;;13.65;82.28;98641.63;4986624;28;19922;-79
2023/10/15 08:38:29;;;;;;;;;;;;;;;13.58;81.86;98647.13;4975941;28;19937;-76
2023/10/15 08:40:59;;;;;;;;;;;;;;;13.45;81.81;98642.41;4955052;29;19922;-79
2023/10/15 08:43:32;;;;;;;;;;;;;;;13.36;82.38;98640.09;4966595;28;20318;-79
2023/10/15 08:46:09;;;;;;;;;;;;;;;13.33;82.06;98645.47;4970871;28;20300;-79
2023/10/15 08:48:40;;;;;;;;;;;;;;;13.25;81.92;98649.22;4979563;28;19933;-78
2023/10/15 08:54:25;;;;;;;;;;;;;;;13.15;82.03;98647.03;4971233;28;19926;-77
2023/10/15 08:57:06;;;;;;;;;;;;;;;13.05;81.49;98655.19;4992866;28;19930;-78
2023/10/15 08:59:36;;;;;;;;;;;;;;;13.00;81.47;98648.44;4974279;28;19922;-78
2023/10/15 09:02:08;;;;;;;;;;;;;;;12.96;81.46;98653.78;4968398;28;20400;-78
2023/10/15 09:04:35;;;;;;;;;;;;;;;12.93;81.53;98653.03;4992337;28;19950;-76
2023/10/15 09:07:07;;;;;;;;;;;;;;;13.03;81.67;98649.16;4975295;28;19929;-77
2023/10/15 09:09:36;;;;;;;;;;;;;;;13.07;81.34;98648.16;4995285;28;20004;-79
2023/10/15 09:12:13;;;;;;;;;;;;;;;13.11;81.40;98656.75;4977442;28;19922;-76
2023/10/15 09:14:47;;;;;;;;;;;;;;;13.18;81.57;98652.13;4976226;28;19926;-76
2023/10/15 09:17:24;;;;;;;;;;;;;;;13.20;81.10;98648.53;5125560;23;20644;-73
2023/10/15 09:20:00;;;;;;;;;;;;;;;13.21;80.96;98638.97;4985008;28;19925;-79
2023/10/15 09:22:26;;;;;;;;;;;;;;;13.17;80.82;98635.59;5016856;28;19934;-82
2023/10/15 09:24:55;;;;;;;;;;;;;;;13.15;80.66;98639.19;4984341;28;21282;-77
2023/10/15 09:27:27;;;;;;;;;;;;;;;13.04;80.31;98639.59;4999233;28;19996;-73
2023/10/15 09:30:18;;;;;;;;;;;;;;;13.00;80.65;98638.00;5028965;28;19956;-78
2023/10/15 09:32:47;;;;;;;;;;;;;;;12.99;80.30;98645.00;5003003;28;19922;-80
2023/10/15 09:35:17;;;;;;;;;;;;;;;12.94;80.37;98644.31;4993046;28;19922;-80
2023/10/15 09:37:44;;;;;;;;;;;;;;;12.90;80.01;98642.72;5008760;28;19971;-75
2023/10/15 09:40:18;;;;;;;;;;;;;;;12.40;80.29;98562.75;4981209;28;19933;-79
2023/10/15 09:42:49;;;;;;;;;;;;;;;13.00;80.41;98633.63;5034570;28;19921;-79
2023/10/15 09:45:23;;;;;;;;;;;;;;;13.08;80.25;98630.72;5017632;28;19956;-78
2023/10/15 09:47:57;;;;;;;;;;;;;;;13.15;80.16;98634.78;5019240;28;19925;-76
2023/10/15 09:50:47;;;;;;;;;;;;;;;13.21;79.94;98636.34;5000138;28;20394;-80
2023/10/15 09:53:34;;;;;;;;;;;;;;;13.22;79.87;98649.34;4986039;28;19921;-78
2023/10/15 09:56:24;;;;;;;;;;;;;;;13.15;79.52;98653.06;5008213;28;19922;-76
2023/10/15 09:58:53;;;;;;;;;;;;;;;13.09;79.10;98645.50;5009598;28;19921;-78
2023/10/15 10:01:26;;;;;;;;;;;;;;;13.09;79.45;98648.13;5009574;28;19932;-79
2023/10/15 10:04:04;;;;;;;;;;;;;;;13.07;79.23;98645.53;5013813;28;20148;-79
2023/10/15 10:06:55;;;;;;;;;;;;;;;13.11;79.39;98644.53;5009344;28;19928;-76
2023/10/15 10:09:33;;;;;;;;;;;;;;;13.15;79.17;98647.84;5021852;28;19929;-79
2023/10/15 10:12:14;;;;;;;;;;;;;;;13.18;79.60;98647.75;5005705;28;19921;-75
2023/10/15 10:14:57;;;;;;;;;;;;;;;13.25;79.16;98648.34;4990062;28;19932;-80
2023/10/15 10:17:31;;;;;;;;;;;;;;;13.29;78.91;98646.50;5008435;28;19968;-81
2023/10/15 10:20:10;;;;;;;;;;;;;;;13.39;78.91;98640.00;5022223;28;19923;-78
2023/10/15 10:22:57;;;;;;;;;;;;;;;13.52;78.85;98635.16;4999803;28;19921;-82
2023/10/15 10:25:42;;;;;;;;;;;;;;;13.52;78.70;98641.25;5006673;28;19925;-77
2023/10/15 10:28:33;;;;;;;;;;;;;;;13.64;78.88;98633.84;5000257;28;19917;-82
2023/10/15 10:30:59;;;;;;;;;;;;;;;13.84;78.46;98644.34;5014810;28;19972;-77
2023/10/15 10:33:44;;;;;;;;;;;;;;;13.93;78.11;98642.25;5014720;28;19954;-82
2023/10/15 10:36:17;;;;;;;;;;;;;;;13.95;77.68;98641.28;5012261;28;20012;-78
2023/10/15 10:38:44;;;;;;;;;;;;;;;13.89;77.88;98636.31;5013547;28;19921;-76
2023/10/15 10:41:14;;;;;;;;;;;;;;;13.82;77.82;98637.47;5014244;28;19928;-78
2023/10/15 10:43:44;;;;;;;;;;;;;;;13.73;77.31;98643.94;5004329;28;19921;-83
2023/10/15 10:46:22;;;;;;;;;;;;;;;13.68;77.57;98651.09;5002565;28;19905;-81
2023/10/15 10:49:14;;;;;;;;;;;;;;;13.61;77.44;98654.84;5016416;28;19925;-80
2023/10/15 10:51:43;;;;;;;;;;;;;;;13.41;77.03;98653.88;4995441;28;19929;-80
2023/10/15 10:54:15;;;;;;;;;;;;;;;13.30;77.16;98650.81;5028384;28;20049;-78
2023/10/15 10:56:51;;;;;;;;;;;;;;;13.25;77.30;98654.44;5003067;28;20402;-80
2023/10/15 10:59:19;;;;;;;;;;;;;;;13.28;77.39;98644.78;4996033;28;19929;-79
2023/10/15 11:01:51;;;;;;;;;;;;;;;13.26;77.12;98650.06;4998068;28;19922;-80
2023/10/15 11:04:17;;;;;;;;;;;;;;;13.24;76.97;98655.34;4987234;28;20897;-79
2023/10/15 11:06:47;;;;;;;;;;;;;;;13.19;77.21;98646.84;4984288;28;19921;-76
2023/10/15 11:12:14;;;;;;;;;;;;;;;13.15;77.06;98637.41;5006287;28;19922;-72
2023/10/15 11:14:47;;;;;;;;;;;;;;;13.19;77.06;98633.78;5007570;28;19921;-82
2023/10/15 11:17:14;;;;;;;;;;;;;;;13.20;76.85;98629.41;4972471;28;19922;-79
2023/10/15 11:19:40;;;;;;;;;;;;;;;13.21;76.89;98642.41;5003036;28;19968;-75
2023/10/15 11:22:26;;;;;;;;;;;;;;;13.21;76.40;98660.69;4988540;28;19925;-75
2023/10/15 11:24:52;;;;;;;;;;;;;;;13.18;76.59;98660.81;5001339;28;19929;-74
2023/10/15 11:27:19;;;;;;;;;;;;;;;13.21;76.64;98654.63;5019818;28;19921;-75
2023/10/15 11:29:50;;;;;;;;;;;;;;;13.16;76.38;98662.63;5003764;28;19932;-77
2023/10/15 11:32:17;;;;;;;;;;;;;;;13.19;77.01;98665.13;5030202;28;19984;-80
2023/10/15 11:34:43;;;;;;;;;;;;;;;13.24;76.40;98662.34;5007278;28;19921;-80
2023/10/15 11:37:16;;;;;;;;;;;;;;;13.20;76.43;98659.00;4983090;28;19929;-80
2023/10/15 11:39:48;;;;;;;;;;;;;;;13.22;76.30;98651.94;5001092;28;19921;-82
2023/10/15 11:42:19;;;;;;;;;;;;;;;13.25;76.54;98648.34;5005772;28;20017;-81
2023/10/15 11:44:55;;;;;;;;;;;;;;;13.23;76.38;98656.25;5007117;28;19922;-79
2023/10/15 11:47:25;;;;;;;;;;;;;;;13.19;76.38;98646.84;5004276;28;19918;-81
2023/10/15 11:49:59;;;;;;;;;;;;;;;13.28;76.59;98653.47;5026141;28;19984;-79
2023/10/15 11:52:42;;;;;;;;;;;;;;;13.34;76.13;98649.78;5018773;28;19934;-80
2023/10/15 11:55:26;;;;;;;;;;;;;;;13.40;76.16;98655.66;5006005;28;19921;-82
2023/10/15 11:57:54;;;;;;;;;;;;;;;13.39;75.89;98650.44;5022094;28;19969;-80
2023/10/15 12:00:33;;;;;;;;;;;;;;;13.39;75.74;98656.53;5023174;28;19951;-79
2023/10/15 12:03:05;;;;;;;;;;;;;;;13.39;75.98;98656.53;5020654;28;19976;-76
2023/10/15 12:05:37;;;;;;;;;;;;;;;13.39;75.78;98658.28;5004844;28;19932;-78
2023/10/15 12:08:05;;;;;;;;;;;;;;;13.38;75.78;98670.50;5005832;28;19925;-78
2023/10/15 12:10:31;;;;;;;;;;;;;;;13.38;75.52;98669.63;5001192;28;19929;-79
2023/10/15 12:13:03;;;;;;;;;;;;;;;13.38;75.26;98667.03;5007442;28;19922;-81
2023/10/15 12:15:32;;;;;;;;;;;;;;;13.41;75.47;98659.09;4993420;28;19953;-82
2023/10/15 12:17:59;;;;;;;;;;;;;;;13.42;75.47;98670.44;5022434;28;19992;-82
2023/10/15 12:20:26;;;;;;;;;;;;;;;13.39;75.46;98673.97;5007650;28;20351;-79
2023/10/15 12:22:53;;;;;;;;;;;;;;;13.35;75.33;98675.84;5027796;28;19922;-81
2023/10/15 12:25:19;;;;;;;;;;;;;;;13.31;75.33;98650.75;5031453;28;20016;-78
2023/10/15 12:27:45;;;;;;;;;;;;;;;13.32;75.20;98643.78;5008433;28;19921;-79
2023/10/15 12:30:32;;;;;;;;;;;;;;;13.32;75.21;98655.06;5020071;28;19921;-77
2023/10/15 12:33:01;;;;;;;;;;;;;;;13.31;75.03;98649.91;5012608;28;19921;-79
2023/10/15 12:35:30;;;;;;;;;;;;;;;13.26;75.09;98647.44;4984156;28;19901;-80
2023/10/15 12:38:02;;;;;;;;;;;;;;;13.24;75.18;98641.47;5007933;28;19925;-83
2023/10/15 12:40:40;;;;;;;;;;;;;;;13.24;74.99;98641.47;4997579;28;19922;-82
2023/10/15 12:43:09;;;;;;;;;;;;;;;13.21;74.92;98638.97;4999149;28;19928;-82
2023/10/15 12:45:38;;;;;;;;;;;;;;;13.21;74.98;98641.56;5015936;28;19922;-80
2023/10/15 12:48:06;;;;;;;;;;;;;;;13.22;74.72;98649.34;5001828;28;19937;-76
2023/10/15 12:50:37;;;;;;;;;;;;;;;13.19;74.96;98654.66;5015452;28;19940;-77
2023/10/15 12:53:04;;;;;;;;;;;;;;;13.19;74.78;98659.91;4999875;28;19929;-83
2023/10/15 12:55:35;;;;;;;;;;;;;;;13.14;74.90;98664.44;5007904;28;19933;-81
2023/10/15 12:58:02;;;;;;;;;;;;;;;13.10;74.53;98665.47;5023052;28;19925;-78
2023/10/15 13:00:39;;;;;;;;;;;;;;;13.07;74.73;98673.44;4995147;28;19983;-79
2023/10/15 13:03:05;;;;;;;;;;;;;;;13.08;74.84;98652.47;5000300;28;19980;-77
2023/10/15 13:05:42;;;;;;;;;;;;;;;13.04;74.70;98653.47;4999357;28;19929;-80
2023/10/15 13:08:18;;;;;;;;;;;;;;;13.03;74.61;98648.31;5007478;28;19925;-81
2023/10/15 13:10:47;;;;;;;;;;;;;;;13.02;74.88;98647.47;4998338;28;19927;-80
2023/10/15 13:13:14;;;;;;;;;;;;;;;12.97;74.69;98652.03;4997502;28;19928;-81
2023/10/15 13:15:45;;;;;;;;;;;;;;;12.93;74.47;98663.50;4980108;28;20239;-80
2023/10/15 13:18:13;;;;;;;;;;;;;;;12.86;74.45;98688.97;5001718;28;19924;-80
2023/10/15 13:20:39;;;;;;;;;;;;;;;12.82;74.32;98687.38;5014543;28;19977;-80
2023/10/15 13:23:08;;;;;;;;;;;;;;;12.79;74.45;98695.31;5013279;28;19983;-80
2023/10/15 13:25:39;;;;;;;;;;;;;;;12.74;74.41;98687.66;5000568;28;20497;-80
2023/10/15 13:28:05;;;;;;;;;;;;;;;12.70;74.17;98686.06;4985315;28;20035;-78
2023/10/15 13:30:31;;;;;;;;;;;;;;;12.69;74.32;98675.69;5003767;28;19925;-74
2023/10/15 13:33:01;;;;;;;;;;;;;;;12.61;74.45;98671.56;5001129;28;19925;-74
2023/10/15 13:35:28;;;;;;;;;;;;;;;12.57;74.32;98687.41;5010824;28;19928;-77